Peotone Weather
Station Historical Data
Daily Summary for September 13, 2017 Units:  Metric    English   Both
« Previous Day
Next Day »
Daily Weekly Monthly Yearly Custom
  High: Low: Average:
Temperature: 19.5 °C 15.2 °C 17.2 °C
Dew Point: 17.4 °C 13.4 °C 15.7 °C
Humidity: 95% 85% 91%
Wind Speed: 9.3km/h 0km/h 1.6km/h
Wind Gust: 14.8km/h - -
Wind- - ENE
Pressure: 1009.4 hPa 1006.7 hPa -
Precipitation: 1.78 mm    
Historical Graphs
 
 
Tabular Data for September 13, 2017
Time Temperature Dew Point Pressure Wind Wind Speed Wind Gust Humidity Rainfall Rate (Hourly) solar Conditions
00:00 16.2 °C 15.1 °C 1009.4 hPa NE 5.6 km/h 7.4 km/h 93% 0 mm 0.00 W/m2
00:01 16.2 °C 15.1 °C 1009.4 hPa NE 3.7 km/h 7.4 km/h 93% 0 mm 0.00 W/m2
00:05 16.3 °C 15.2 °C 1009 hPa NE 1.8 km/h 7.4 km/h 93% 0 mm 0.00 W/m2
00:06 16.3 °C 15.2 °C 1009 hPa NE 5.5 km/h 7.4 km/h 93% 0 mm 0.00 W/m2
00:10 16.2 °C 15.1 °C 1009 hPa NE 3.7 km/h 9.3 km/h 93% 0 mm 0.00 W/m2
00:11 16.3 °C 15.2 °C 1009 hPa NE 3.7 km/h 9.3 km/h 93% 0 mm 0.00 W/m2
00:15 16.2 °C 15.1 °C 1009 hPa Calm   7.4 km/h 93% 0 mm 0.00 W/m2
00:20 16.1 °C 14.9 °C 1009 hPa NNE 3.7 km/h 9.3 km/h 93% 0 mm 0.00 W/m2
00:21 16.1 °C 15 °C 1009 hPa NNE 1.8 km/h 9.3 km/h 93% 0 mm 0.00 W/m2
00:25 16.1 °C 14.9 °C 1009 hPa NE 7.4 km/h 7.4 km/h 93% 0 mm 0.00 W/m2
00:26 16.1 °C 14.9 °C 1009 hPa NE 1.8 km/h 7.4 km/h 93% 0 mm 0.00 W/m2
00:30 16.1 °C 14.9 °C 1009 hPa Calm   9.3 km/h 93% 0 mm 0.00 W/m2
00:31 16.1 °C 14.9 °C 1009 hPa Calm   9.3 km/h 93% 0 mm 0.00 W/m2
00:35 16 °C 15.1 °C 1009 hPa Calm   7.4 km/h 94% 0 mm 0.00 W/m2
00:36 16 °C 15.1 °C 1009 hPa Calm   7.4 km/h 94% 0 mm 0.00 W/m2
00:40 16 °C 15.1 °C 1008.7 hPa NNE 9.3 km/h 9.3 km/h 94% 0 mm 0.00 W/m2
00:41 16 °C 15.1 °C 1008.7 hPa NNE 1.8 km/h 7.4 km/h 94% 0 mm 0.00 W/m2
00:45 15.9 °C 15 °C 1009 hPa ENE 7.4 km/h 13 km/h 94% 0 mm 0.00 W/m2
00:46 16 °C 15.1 °C 1009 hPa NE 7.4 km/h 9.3 km/h 94% 0 mm 0.00 W/m2
00:50 16.1 °C 15.1 °C 1009 hPa NE 3.7 km/h 7.4 km/h 94% 0 mm 0.00 W/m2
00:51 16.1 °C 15.1 °C 1009 hPa NE 3.7 km/h 7.4 km/h 94% 0 mm 0.00 W/m2
00:55 16.1 °C 15.1 °C 1009 hPa NE 5.6 km/h 9.3 km/h 94% 0 mm 0.00 W/m2
00:56 16.1 °C 15.1 °C 1009 hPa NE 5.5 km/h 9.3 km/h 94% 0 mm 0.00 W/m2
01:00 16 °C 15.1 °C 1008.7 hPa Calm   9.3 km/h 94% 0 mm 0.00 W/m2
01:01 16 °C 15.1 °C 1008.7 hPa Calm   9.3 km/h 94% 0 mm 0.00 W/m2
01:05 15.9 °C 15 °C 1008.7 hPa NE 5.6 km/h 9.3 km/h 94% 0 mm 0.00 W/m2
01:06 15.9 °C 15 °C 1008.7 hPa NE 5.5 km/h 9.3 km/h 94% 0 mm 0.00 W/m2
01:10 15.9 °C 15 °C 1008.7 hPa NE 5.6 km/h 9.3 km/h 94% 0 mm 0.00 W/m2
01:11 15.9 °C 15 °C 1008.7 hPa NE 1.8 km/h 5.5 km/h 94% 0 mm 0.00 W/m2
01:15 15.8 °C 14.9 °C 1008.7 hPa Calm   5.6 km/h 94% 0 mm 0.00 W/m2
01:16 15.8 °C 14.9 °C 1008.7 hPa Calm     94% 0 mm 0.00 W/m2
01:20 15.7 °C 14.7 °C 1008.7 hPa Calm   3.7 km/h 94% 0 mm 0.00 W/m2
01:21 15.7 °C 14.7 °C 1008.7 hPa NE 1.8 km/h 1.8 km/h 94% 0 mm 0.00 W/m2
01:25 15.6 °C 14.7 °C 1008.7 hPa NE 3.7 km/h 7.4 km/h 94% 0 mm 0.00 W/m2
01:26 15.6 °C 14.6 °C 1008.7 hPa NE 3.7 km/h 5.5 km/h 94% 0 mm 0.00 W/m2
01:30 15.6 °C 14.6 °C 1008.4 hPa NE 3.7 km/h 7.4 km/h 94% 0 mm 0.00 W/m2
01:31 15.6 °C 14.6 °C 1008.4 hPa NE 1.8 km/h 3.7 km/h 94% 0 mm 0.00 W/m2
01:35 15.5 °C 14.6 °C 1008.4 hPa Calm   3.7 km/h 94% 0 mm 0.00 W/m2
01:36 15.5 °C 14.6 °C 1008.4 hPa Calm     94% 0 mm 0.00 W/m2
01:40 15.4 °C 14.4 °C 1008.4 hPa Calm   5.6 km/h 94% 0 mm 0.00 W/m2
01:41 15.4 °C 14.4 °C 1008.4 hPa Calm     94% 0 mm 0.00 W/m2
01:45 15.4 °C 14.5 °C 1008.4 hPa NE 3.7 km/h 7.4 km/h 94% 0 mm 0.00 W/m2
01:46 15.5 °C 14.6 °C 1008.4 hPa NE 5.5 km/h 5.5 km/h 94% 0 mm 0.00 W/m2
01:50 15.7 °C 14.9 °C 1008.4 hPa NE 3.7 km/h 5.6 km/h 95% 0 mm 0.00 W/m2
01:51 15.7 °C 14.9 °C 1008.4 hPa NE 1.8 km/h 3.7 km/h 95% 0 mm 0.00 W/m2
01:55 15.7 °C 14.7 °C 1008.4 hPa NE 1.8 km/h 5.6 km/h 94% 0 mm 0.00 W/m2
01:56 15.7 °C 14.8 °C 1008.4 hPa NE 1.8 km/h 3.7 km/h 94% 0 mm 0.00 W/m2
02:00 15.8 °C 14.8 °C 1008.4 hPa ENE 1.8 km/h 9.3 km/h 94% 0 mm 0.00 W/m2
02:01 15.8 °C 14.8 °C 1008.4 hPa ENE 1.8 km/h 1.8 km/h 94% 0 mm 0.00 W/m2
02:05 15.8 °C 14.8 °C 1008.4 hPa NE 1.8 km/h 9.3 km/h 94% 0 mm 0.00 W/m2
02:06 15.8 °C 14.8 °C 1008.4 hPa NE 3.7 km/h 3.7 km/h 94% 0 mm 0.00 W/m2
02:10 15.8 °C 14.7 °C 1008 hPa ENE 3.7 km/h 7.4 km/h 93% 0 mm 0.00 W/m2
02:11 15.8 °C 14.7 °C 1008 hPa ENE 1.8 km/h 3.7 km/h 93% 0 mm 0.00 W/m2
02:15 15.8 °C 14.5 °C 1008 hPa ENE 1.8 km/h 3.7 km/h 92% 0 mm 0.00 W/m2
02:16 15.8 °C 14.5 °C 1008 hPa Calm   1.8 km/h 92% 0 mm 0.00 W/m2
02:20 15.7 °C 14.4 °C 1008 hPa Calm   5.6 km/h 92% 0 mm 0.00 W/m2
02:22 15.7 °C 14.4 °C 1008 hPa ENE 1.8 km/h 1.8 km/h 92% 0 mm 0.00 W/m2
02:25 15.7 °C 14.2 °C 1008 hPa ENE 3.7 km/h 7.4 km/h 91% 0 mm 0.00 W/m2
02:27 15.7 °C 14.2 °C 1008 hPa ENE 3.7 km/h 7.4 km/h 91% 0 mm 0.00 W/m2
02:30 15.7 °C 14.2 °C 1007.7 hPa ENE 3.7 km/h 7.4 km/h 91% 0 mm 0.00 W/m2
02:32 15.6 °C 14.2 °C 1007.7 hPa ENE 3.7 km/h 7.4 km/h 91% 0 mm 0.00 W/m2
02:35 15.4 °C 14 °C 1007.7 hPa Calm   9.3 km/h 91% 0 mm 0.00 W/m2
02:37 15.4 °C 14 °C 1007.7 hPa Calm   1.8 km/h 91% 0 mm 0.00 W/m2
02:40 15.4 °C 14 °C 1007.7 hPa Calm   7.4 km/h 91% 0 mm 0.00 W/m2
02:42 15.4 °C 14 °C 1007.7 hPa Calm     91% 0 mm 0.00 W/m2
02:45 15.3 °C 13.9 °C 1007.7 hPa NE 3.7 km/h 5.6 km/h 91% 0 mm 0.00 W/m2
02:47 15.3 °C 13.9 °C 1007.7 hPa Calm   3.7 km/h 91% 0 mm 0.00 W/m2
02:50 15.3 °C 13.8 °C 1007.7 hPa NE 1.8 km/h 5.6 km/h 91% 0 mm 0.00 W/m2
02:52 15.2 °C 13.8 °C 1007.7 hPa Calm   1.8 km/h 91% 0 mm 0.00 W/m2
02:55 15.2 °C 13.7 °C 1007.7 hPa NE 1.8 km/h 5.6 km/h 91% 0 mm 0.00 W/m2
02:57 15.2 °C 13.7 °C 1007.7 hPa Calm   3.7 km/h 91% 0 mm 0.00 W/m2
03:01 15.2 °C 13.7 °C 1007.7 hPa Calm   1.8 km/h 91% 0 mm 0.00 W/m2
03:07 15.3 °C 13.7 °C 1007.7 hPa NE 1.8 km/h 3.7 km/h 90% 0 mm 0.00 W/m2
03:12 15.3 °C 13.6 °C 1007.7 hPa Calm     89% 0 mm 0.00 W/m2
03:13 15.3 °C 13.6 °C 1007.7 hPa NE 1.8 km/h 5.5 km/h 89% 0 mm 0.00 W/m2
03:18 15.3 °C 13.6 °C 1007.7 hPa NE 1.8 km/h 5.5 km/h 89% 0 mm 0.00 W/m2
03:23 15.3 °C 13.6 °C 1007.7 hPa NE 3.7 km/h 11.1 km/h 89% 0 mm 0.00 W/m2
03:28 15.4 °C 13.6 °C 1007.7 hPa NE 5.5 km/h 7.4 km/h 89% 0 mm 0.00 W/m2
03:33 15.5 °C 13.7 °C 1007.7 hPa Calm   7.4 km/h 89% 0 mm 0.00 W/m2
03:38 15.6 °C 13.6 °C 1007.7 hPa NE 5.5 km/h 9.3 km/h 88% 0 mm 0.00 W/m2
03:43 15.7 °C 13.7 °C 1007.3 hPa NE 7.4 km/h 7.4 km/h 88% 0 mm 0.00 W/m2
03:48 15.8 °C 13.6 °C 1007.7 hPa NE 5.5 km/h 9.3 km/h 87% 0 mm 0.00 W/m2
03:54 15.9 °C 13.6 °C 1007.7 hPa NE 1.8 km/h 7.4 km/h 86% 0 mm 0.00 W/m2
03:59 15.9 °C 13.6 °C 1007.7 hPa NE 1.8 km/h 7.4 km/h 86% 0 mm 0.00 W/m2
04:04 15.9 °C 13.7 °C 1007.7 hPa NE 1.8 km/h 9.3 km/h 87% 0 mm 0.00 W/m2
04:09 15.9 °C 13.6 °C 1007.7 hPa NE 5.5 km/h 5.5 km/h 86% 0 mm 0.00 W/m2
04:15 15.9 °C 13.6 °C 1007.7 hPa Calm   7.4 km/h 86% 0 mm 0.00 W/m2
04:20 15.9 °C 13.4 °C 1007.7 hPa NE 3.7 km/h 9.3 km/h 85% 0 mm 0.00 W/m2
04:25 16.1 °C 13.6 °C 1007.7 hPa NE 3.7 km/h 7.4 km/h 85% 0 mm 0.00 W/m2
04:31 16.1 °C 13.6 °C 1007.7 hPa Calm   7.4 km/h 85% 0 mm 0.00 W/m2
04:36 16.1 °C 13.6 °C 1007.7 hPa NE 3.7 km/h 5.5 km/h 85% 0 mm 0.00 W/m2
04:41 16.1 °C 13.6 °C 1007.7 hPa Calm   11.1 km/h 85% 0 mm 0.00 W/m2
04:46 16.1 °C 13.6 °C 1007.3 hPa Calm   7.4 km/h 85% 0 mm 0.00 W/m2
04:51 16.1 °C 13.6 °C 1007.7 hPa Calm   5.5 km/h 85% 0 mm 0.00 W/m2
04:56 16.1 °C 13.6 °C 1007.7 hPa NE 3.7 km/h 11.1 km/h 85% 0 mm 0.00 W/m2
05:01 16.1 °C 13.6 °C 1007.7 hPa Calm   7.4 km/h 85% 0 mm 0.00 W/m2
05:06 16.2 °C 13.7 °C 1007.7 hPa NE 1.8 km/h 5.5 km/h 85% 0 mm 0.00 W/m2
05:11 16.2 °C 13.7 °C 1007.7 hPa NE 7.4 km/h 7.4 km/h 85% 0 mm 0.00 W/m2
05:16 16.1 °C 13.8 °C 1007.7 hPa NNE 1.8 km/h 1.8 km/h 86% 0 mm 0.00 W/m2
05:21 16 °C 13.7 °C 1007.7 hPa NNE 5.5 km/h 9.3 km/h 86% 0 mm 0.00 W/m2
05:27 16 °C 14 °C 1007.7 hPa NE 1.8 km/h 5.5 km/h 88% 0 mm 0.00 W/m2
05:32 15.8 °C 13.8 °C 1007.7 hPa NE 5.5 km/h 5.5 km/h 88% 0.25 mm 0.00 W/m2
05:37 15.7 °C 13.9 °C 1007.7 hPa NNE 5.5 km/h 5.5 km/h 89% 0.25 mm 0.00 W/m2
05:42 15.6 °C 13.9 °C 1007.7 hPa NNE 1.8 km/h 3.7 km/h 90% 0.25 mm 0.00 W/m2
05:47 15.6 °C 13.9 °C 1007.7 hPa Calm   1.8 km/h 90% 0.25 mm 0.00 W/m2
05:52 15.5 °C 14.1 °C 1007.7 hPa NNE 1.8 km/h 7.4 km/h 91% 0.25 mm 0.00 W/m2
05:57 15.4 °C 14 °C 1007.7 hPa NNE 1.8 km/h 1.8 km/h 91% 0.25 mm 0.00 W/m2
06:02 15.4 °C 14.2 °C 1007.7 hPa Calm   1.8 km/h 92% 0.25 mm 0.00 W/m2
06:07 15.4 °C 14.2 °C 1007.7 hPa Calm   3.7 km/h 92% 0.51 mm 0.00 W/m2
06:12 15.3 °C 14.1 °C 1007.7 hPa NNE 1.8 km/h 5.5 km/h 92% 0.51 mm 0.00 W/m2
06:17 15.3 °C 14.2 °C 1007.7 hPa NNE 3.7 km/h 5.5 km/h 93% 0.51 mm 0.00 W/m2
06:23 15.3 °C 14.2 °C 1007.7 hPa Calm   5.5 km/h 93% 0.51 mm 0.00 W/m2
06:28 15.3 °C 14.2 °C 1007.7 hPa Calm     93% 0.51 mm 0.00 W/m2
06:33 15.3 °C 14.2 °C 1007.7 hPa Calm     93% 0.51 mm 0.00 W/m2
06:38 15.3 °C 14.2 °C 1007.7 hPa Calm     93% 0.51 mm 0.00 W/m2
06:43 15.3 °C 14.3 °C 1007.7 hPa Calm     94% 0.51 mm 5.00 W/m2
06:48 15.3 °C 14.4 °C 1007.7 hPa Calm     94% 0.51 mm 7.00 W/m2
06:53 15.3 °C 14.4 °C 1008 hPa NNE 1.8 km/h 1.8 km/h 94% 0.51 mm 11.00 W/m2
06:58 15.3 °C 14.4 °C 1008 hPa Calm   5.5 km/h 94% 0.51 mm 14.00 W/m2
07:04 15.3 °C 14.4 °C 1008 hPa NNE 3.7 km/h 5.5 km/h 94% 0.51 mm 12.00 W/m2
07:09 15.3 °C 14.4 °C 1008 hPa NE 9.3 km/h 9.3 km/h 94% 0.51 mm 14.00 W/m2
07:10 15.3 °C 14.4 °C 1008 hPa NE 1.8 km/h 9.3 km/h 94% 0.51 mm 14.00 W/m2
07:15 15.3 °C 14.4 °C 1008 hPa Calm   9.3 km/h 94% 0.51 mm 14.00 W/m2
07:20 15.3 °C 14.4 °C 1008 hPa Calm   9.3 km/h 94% 0.51 mm 21.00 W/m2
07:25 15.4 °C 14.5 °C 1007.7 hPa NE 5.5 km/h 5.5 km/h 94% 0.51 mm 42.00 W/m2
07:30 15.6 °C 14.6 °C 1008 hPa Calm   5.5 km/h 94% 0.51 mm 62.00 W/m2
07:35 15.6 °C 14.7 °C 1008 hPa Calm   1.8 km/h 94% 0.51 mm 62.00 W/m2
07:41 15.7 °C 14.8 °C 1008 hPa Calm   9.3 km/h 94% 0.51 mm 39.00 W/m2
07:46 15.7 °C 14.8 °C 1008.4 hPa NE 3.7 km/h 5.5 km/h 94% 0.25 mm 37.00 W/m2
07:51 15.7 °C 14.8 °C 1008.4 hPa NE 1.8 km/h 5.5 km/h 94% 0.25 mm 54.00 W/m2
07:56 15.8 °C 14.9 °C 1008 hPa Calm   3.7 km/h 94% 0.25 mm 84.00 W/m2
08:01 16 °C 15.1 °C 1008 hPa Calm   3.7 km/h 94% 0.25 mm 86.00 W/m2
08:06 16.3 °C 15.5 °C 1008 hPa NE 3.7 km/h 5.5 km/h 95% 0.25 mm 90.00 W/m2
08:11 16.4 °C 15.4 °C 1008 hPa NE 1.8 km/h 3.7 km/h 94% 0 mm 163.00 W/m2
08:16 16.6 °C 15.7 °C 1008 hPa NE 1.8 km/h 3.7 km/h 94% 0 mm 169.00 W/m2
08:21 16.7 °C 15.8 °C 1008.4 hPa NE 5.5 km/h 11.1 km/h 94% 0 mm 141.00 W/m2
08:26 16.8 °C 15.8 °C 1008.4 hPa Calm   9.3 km/h 94% 0 mm 114.00 W/m2
08:31 16.9 °C 15.9 °C 1008 hPa Calm   7.4 km/h 94% 0 mm 142.00 W/m2
08:36 17 °C 16 °C 1008 hPa NE 5.5 km/h 7.4 km/h 94% 0 mm 121.00 W/m2
08:41 17.1 °C 16.1 °C 1008 hPa NE 7.4 km/h 7.4 km/h 94% 0 mm 151.00 W/m2
08:46 17.2 °C 16 °C 1008 hPa Calm     93% 0 mm 185.00 W/m2
08:51 17.4 °C 16.5 °C 1008 hPa Calm     94% 0 mm 169.00 W/m2
08:56 17.4 °C 16.2 °C 1008.4 hPa Calm   3.7 km/h 93% 0 mm 125.00 W/m2
09:01 17.4 °C 16.1 °C 1008.4 hPa ENE 3.7 km/h 5.5 km/h 92% 0 mm 128.00 W/m2
09:06 17.4 °C 15.9 °C 1008 hPa ENE 1.8 km/h 3.7 km/h 91% 0 mm 167.00 W/m2
09:11 17.7 °C 16.3 °C 1008 hPa Calm   3.7 km/h 92% 0 mm 204.00 W/m2
09:17 17.7 °C 16.2 °C 1008 hPa Calm   3.7 km/h 91% 0 mm 179.00 W/m2
09:22 17.6 °C 15.9 °C 1008 hPa Calm   1.8 km/h 90% 0 mm 171.00 W/m2
09:27 17.7 °C 16.2 °C 1008 hPa East 1.8 km/h 11.1 km/h 91% 0.51 mm 199.00 W/m2
09:32 17.6 °C 16.3 °C 1008 hPa East 3.7 km/h 3.7 km/h 92% 0.51 mm 279.00 W/m2
09:37 17.7 °C 16.3 °C 1008 hPa East 3.7 km/h 3.7 km/h 92% 0.76 mm 229.00 W/m2
09:42 17.8 °C 16.4 °C 1008 hPa Calm     92% 0.76 mm 287.00 W/m2
09:47 18.2 °C 17 °C 1008 hPa ENE 9.3 km/h 9.3 km/h 93% 0.76 mm 392.00 W/m2
09:52 18.2 °C 16.6 °C 1007.7 hPa East 3.7 km/h 9.3 km/h 90% 0.76 mm 237.00 W/m2
09:57 18.3 °C 16.8 °C 1007.7 hPa East 1.8 km/h 3.7 km/h 91% 0.76 mm 248.00 W/m2
10:02 18.3 °C 16.7 °C 1007.7 hPa Calm   1.8 km/h 90% 0.76 mm 397.00 W/m2
10:07 18.4 °C 16.8 °C 1007.7 hPa Calm   5.5 km/h 90% 0.76 mm 227.00 W/m2
10:13 18.5 °C 17 °C 1007.7 hPa ESE 1.8 km/h 5.5 km/h 91% 0.76 mm 223.00 W/m2
10:18 18.6 °C 16.9 °C 1007.7 hPa ESE 1.8 km/h 7.4 km/h 90% 0.76 mm 253.00 W/m2
10:23 18.5 °C 16.8 °C 1007.7 hPa Calm   3.7 km/h 90% 0.76 mm 265.00 W/m2
10:28 18.6 °C 16.7 °C 1007.7 hPa SE 7.4 km/h 7.4 km/h 89% 0.51 mm 350.00 W/m2
10:33 18.6 °C 16.9 °C 1007.7 hPa Calm   5.5 km/h 90% 0.25 mm 301.00 W/m2
10:38 18.7 °C 16.9 °C 1007.7 hPa ESE 5.5 km/h 9.3 km/h 89% 0.25 mm 341.00 W/m2
10:43 18.9 °C 17.3 °C 1007.7 hPa ESE 3.7 km/h 7.4 km/h 90% 0 mm 220.00 W/m2
10:48 18.8 °C 16.8 °C 1007.7 hPa ESE 3.7 km/h 3.7 km/h 88% 0 mm 220.00 W/m2
10:53 18.7 °C 16.7 °C 1007.7 hPa Calm   3.7 km/h 88% 0 mm 260.00 W/m2
10:59 18.7 °C 16.7 °C 1007.7 hPa ESE 3.7 km/h 5.5 km/h 88% 0 mm 213.00 W/m2
11:04 18.8 °C 16.8 °C 1007.7 hPa Calm   5.5 km/h 88% 0 mm 141.00 W/m2
11:09 18.7 °C 16.8 °C 1007.7 hPa ESE 5.5 km/h 7.4 km/h 89% 0 mm 141.00 W/m2
11:14 18.5 °C 16.5 °C 1007.7 hPa ESE 1.8 km/h 7.4 km/h 88% 0 mm 144.00 W/m2
11:19 18.5 °C 16.5 °C 1007.7 hPa Calm     88% 0 mm 139.00 W/m2
11:24 18.5 °C 16.7 °C 1007.7 hPa ESE 5.5 km/h 7.4 km/h 89% 0 mm 113.00 W/m2
11:29 18.5 °C 16.7 °C 1007.7 hPa ESE 1.8 km/h 3.7 km/h 89% 0 mm 197.00 W/m2
11:34 18.7 °C 16.9 °C 1007.7 hPa Calm   5.5 km/h 89% 0 mm 295.00 W/m2
11:39 18.9 °C 17.1 °C 1007.3 hPa ESE 5.5 km/h 5.5 km/h 89% 0 mm 258.00 W/m2
11:44 19.1 °C 17 °C 1007.7 hPa Calm   3.7 km/h 88% 0 mm 200.00 W/m2
11:49 19 °C 16.9 °C 1007.3 hPa Calm   5.5 km/h 88% 0 mm 401.00 W/m2
11:54 18.9 °C 16.9 °C 1007.3 hPa Calm   5.5 km/h 88% 0 mm 295.00 W/m2
12:00 19.2 °C 17 °C 1007.3 hPa Calm   3.7 km/h 87% 0 mm 257.00 W/m2
12:05 19.3 °C 17.3 °C 1007.3 hPa Calm   3.7 km/h 88% 0 mm 188.00 W/m2
12:10 19.1 °C 16.9 °C 1007.3 hPa Calm     87% 0 mm 202.00 W/m2
12:15 19.2 °C 17.2 °C 1007.3 hPa Calm     88% 0 mm 220.00 W/m2
12:20 19.3 °C 17.3 °C 1007.3 hPa ESE 3.7 km/h 3.7 km/h 88% 0 mm 250.00 W/m2
12:25 19.3 °C 17.1 °C 1007.3 hPa Calm   3.7 km/h 87% 0 mm 188.00 W/m2
12:30 19.2 °C 16.8 °C 1007.3 hPa Calm     86% 0 mm 165.00 W/m2
12:35 19.3 °C 17.2 °C 1007 hPa Calm     88% 0 mm 274.00 W/m2
12:40 19.5 °C 17.3 °C 1007 hPa Calm   7.4 km/h 87% 0 mm 207.00 W/m2
12:45 19.5 °C 17.4 °C 1007 hPa Calm   1.8 km/h 88% 0 mm 135.00 W/m2
12:51 19.3 °C 17.3 °C 1007 hPa ENE 3.7 km/h 7.4 km/h 88% 0 mm 111.00 W/m2
12:56 19.3 °C 17.1 °C 1007 hPa ENE 3.7 km/h 5.5 km/h 87% 0 mm 105.00 W/m2
13:01 19.3 °C 17.2 °C 1007 hPa ENE 5.5 km/h 5.5 km/h 88% 0 mm 90.00 W/m2
13:06 19.3 °C 17.3 °C 1007 hPa Calm   3.7 km/h 88% 0 mm 125.00 W/m2
13:11 19.4 °C 17.3 °C 1007 hPa Calm   9.3 km/h 88% 0 mm 130.00 W/m2
13:16 19.4 °C 17.2 °C 1007 hPa Calm   1.8 km/h 87% 0 mm 102.00 W/m2
13:21 19.3 °C 17.3 °C 1007 hPa Calm   3.7 km/h 88% 0 mm 83.00 W/m2
13:26 19.2 °C 17.2 °C 1007 hPa ENE 3.7 km/h 7.4 km/h 88% 0 mm 70.00 W/m2
13:31 19.2 °C 17.2 °C 1007 hPa Calm   7.4 km/h 88% 0 mm 69.00 W/m2
13:36 19.2 °C 17.2 °C 1006.7 hPa Calm   3.7 km/h 88% 0 mm 56.00 W/m2
13:41 19.2 °C 17.1 °C 1007 hPa ESE 9.3 km/h 13 km/h 88% 0 mm 53.00 W/m2
13:46 19.2 °C 17.1 °C 1007 hPa ESE 1.8 km/h 14.8 km/h 88% 0 mm 53.00 W/m2
13:51 19.1 °C 17.1 °C 1006.7 hPa ESE 9.3 km/h 9.3 km/h 88% 0 mm 49.00 W/m2
13:56 18.9 °C 17.1 °C 1007 hPa SE 1.8 km/h 11.1 km/h 89% 0 mm 54.00 W/m2
14:01 18.8 °C 16.9 °C 1007 hPa SE 9.3 km/h 13 km/h 89% 0 mm 56.00 W/m2
14:06 18.7 °C 16.8 °C 1007 hPa SE 1.8 km/h 3.7 km/h 89% 0 mm 46.00 W/m2
14:11 18.6 °C 16.9 °C 1007 hPa ESE 1.8 km/h 1.8 km/h 90% 0 mm 44.00 W/m2
14:16 18.5 °C 16.8 °C 1007 hPa ESE 1.8 km/h 3.7 km/h 90% 0 mm 47.00 W/m2
14:21 18.4 °C 16.8 °C 1007 hPa ESE 5.5 km/h 13 km/h 90% 0 mm 54.00 W/m2
14:26 18.4 °C 16.9 °C 1007 hPa ESE 3.7 km/h 9.3 km/h 91% 0 mm 53.00 W/m2
14:31 18.3 °C 16.8 °C 1007 hPa ESE 3.7 km/h 13 km/h 91% 0 mm 51.00 W/m2
14:36 18.3 °C 16.8 °C 1007 hPa Calm   7.4 km/h 91% 0 mm 54.00 W/m2
14:41 18.2 °C 16.7 °C 1007 hPa SE 1.8 km/h 9.3 km/h 91% 0 mm 62.00 W/m2
14:46 18.2 °C 16.8 °C 1007 hPa Calm     92% 0 mm 65.00 W/m2
14:51 18.2 °C 16.8 °C 1007 hPa SE 7.4 km/h 7.4 km/h 92% 0 mm 81.00 W/m2
14:57 18.2 °C 16.8 °C 1007 hPa SE 1.8 km/h 5.5 km/h 92% 0 mm 102.00 W/m2
15:02 18.1 °C 16.9 °C 1007 hPa Calm   5.5 km/h 93% 0 mm 95.00 W/m2
15:07 18.2 °C 17 °C 1006.7 hPa Calm     93% 0 mm 97.00 W/m2
15:12 18.2 °C 17 °C 1007 hPa Calm   1.8 km/h 93% 0 mm 90.00 W/m2
15:17 18.2 °C 17.1 °C 1007 hPa SE 9.3 km/h 9.3 km/h 93% 0 mm 130.00 W/m2
15:22 18.2 °C 17 °C 1007 hPa Calm     93% 0 mm 123.00 W/m2
15:27 18.1 °C 16.9 °C 1007 hPa SSE 1.8 km/h 3.7 km/h 93% 0 mm 123.00 W/m2
15:32 18.2 °C 17.2 °C 1006.7 hPa SSE 3.7 km/h 7.4 km/h 94% 0 mm 98.00 W/m2
15:37 18.2 °C 17.2 °C 1006.7 hPa Calm   5.5 km/h 94% 0 mm 183.00 W/m2
15:42 18.3 °C 17.1 °C 1007 hPa Calm     93% 0 mm 186.00 W/m2
15:48 18.3 °C 17 °C 1007 hPa Calm   1.8 km/h 92% 0 mm 144.00 W/m2
15:53 18.5 °C 17.2 °C 1007 hPa Calm     92% 0 mm 188.00 W/m2
15:58 18.7 °C 17.3 °C 1007 hPa Calm     92% 0 mm 174.00 W/m2
16:03 18.8 °C 17.1 °C 1007 hPa Calm     90% 0 mm 142.00 W/m2
16:08 18.8 °C 17.1 °C 1007 hPa SSE 3.7 km/h 3.7 km/h 90% 0 mm 121.00 W/m2
16:13 18.8 °C 17.2 °C 1007 hPa Calm     90% 0 mm 120.00 W/m2
16:18 18.8 °C 16.9 °C 1007 hPa Calm   3.7 km/h 89% 0 mm 125.00 W/m2
16:23 18.8 °C 17.2 °C 1007 hPa SSE 3.7 km/h 3.7 km/h 90% 0 mm 121.00 W/m2
16:28 18.9 °C 17.1 °C 1007 hPa Calm     89% 0 mm 91.00 W/m2
16:33 18.9 °C 17.1 °C 1007 hPa Calm     89% 0 mm 91.00 W/m2
16:38 18.9 °C 17.1 °C 1007 hPa Calm     89% 0 mm 91.00 W/m2
16:43 19.1 °C 17.4 °C 1007 hPa Calm   3.7 km/h 90% 0 mm 86.00 W/m2
16:48 19 °C 17.3 °C 1007 hPa Calm     90% 0 mm 86.00 W/m2
16:54 19.1 °C 17.4 °C 1007 hPa Calm     90% 0 mm 93.00 W/m2
16:59 19.1 °C 17.1 °C 1007 hPa Calm     88% 0 mm 74.00 W/m2
17:04 19.1 °C 17.2 °C 1007 hPa Calm     89% 0 mm 79.00 W/m2
17:09 19 °C 17.2 °C 1007 hPa Calm     89% 0 mm 83.00 W/m2
17:14 19.2 °C 17.3 °C 1007 hPa Calm     89% 0 mm 74.00 W/m2
17:19 19.2 °C 17.3 °C 1007 hPa SSE 1.8 km/h 3.7 km/h 89% 0 mm 62.00 W/m2
17:24 19.1 °C 17.2 °C 1007 hPa Calm     89% 0 mm 56.00 W/m2
17:29 19.1 °C 17.2 °C 1007 hPa Calm     89% 0 mm 62.00 W/m2
17:34 19.1 °C 17.4 °C 1007 hPa Calm     90% 0 mm 62.00 W/m2
17:39 19.1 °C 17.4 °C 1007.3 hPa Calm   1.8 km/h 90% 0 mm 51.00 W/m2
17:45 19.1 °C 17.3 °C 1007 hPa Calm   1.8 km/h 89% 0 mm 39.00 W/m2
17:50 19.1 °C 17.2 °C 1007 hPa Calm     89% 0 mm 42.00 W/m2
17:55 19.1 °C 17.4 °C 1007 hPa Calm     90% 0 mm 46.00 W/m2
18:00 19 °C 17.3 °C 1007 hPa Calm     90% 0 mm 46.00 W/m2
18:05 19 °C 17.2 °C 1007.3 hPa Calm     89% 0 mm 44.00 W/m2
18:10 18.9 °C 17.1 °C 1007 hPa Calm     89% 0 mm 42.00 W/m2
18:15 18.9 °C 17.3 °C 1007 hPa Calm     90% 0 mm 39.00 W/m2
18:20 18.9 °C 17.3 °C 1007 hPa Calm   1.8 km/h 90% 0 mm 39.00 W/m2
18:25 18.9 °C 17.1 °C 1007 hPa Calm     89% 0 mm 33.00 W/m2
18:31 18.9 °C 17.3 °C 1007 hPa Calm     90% 0 mm 30.00 W/m2
18:36 18.9 °C 17.3 °C 1007 hPa Calm     90% 0 mm 25.00 W/m2
18:41 18.8 °C 17.2 °C 1007 hPa Calm     90% 0 mm 26.00 W/m2
18:46 18.8 °C 17.2 °C 1007.3 hPa Calm   3.7 km/h 90% 0 mm 19.00 W/m2
18:51 18.8 °C 17.2 °C 1007.3 hPa Calm   1.8 km/h 90% 0 mm 16.00 W/m2
18:56 18.8 °C 17.1 °C 1007.3 hPa ESE 1.8 km/h 3.7 km/h 90% 0 mm 12.00 W/m2
19:01 18.7 °C 17.1 °C 1007.3 hPa ESE 3.7 km/h 5.5 km/h 90% 0 mm 7.00 W/m2
19:02 18.7 °C 17.1 °C 1007.3 hPa Calm   3.7 km/h 90% 0 mm 7.00 W/m2
19:07 18.7 °C 17.2 °C 1007.3 hPa Calm     91% 0 mm 0.00 W/m2
19:12 18.7 °C 17.2 °C 1007.3 hPa Calm     91% 0 mm 0.00 W/m2
19:17 18.6 °C 17.1 °C 1007.3 hPa Calm     91% 0 mm 0.00 W/m2
19:22 18.6 °C 17.1 °C 1007.3 hPa Calm     91% 0 mm 0.00 W/m2
19:27 18.5 °C 17 °C 1007.3 hPa ESE 1.8 km/h 1.8 km/h 91% 0 mm 0.00 W/m2
19:32 18.5 °C 17.2 °C 1007.3 hPa Calm     92% 0 mm 0.00 W/m2
19:37 18.4 °C 17.1 °C 1007.3 hPa Calm     92% 0 mm 0.00 W/m2
19:43 18.5 °C 17.2 °C 1007.3 hPa Calm   5.5 km/h 92% 0 mm 0.00 W/m2
19:48 18.5 °C 17.2 °C 1007.7 hPa ESE 1.8 km/h 5.5 km/h 92% 0 mm 0.00 W/m2
19:53 18.4 °C 17.1 °C 1007.7 hPa ESE 1.8 km/h 5.5 km/h 92% 0 mm 0.00 W/m2
19:58 18.3 °C 16.9 °C 1007.7 hPa ESE 1.8 km/h 3.7 km/h 92% 0 mm 0.00 W/m2
20:03 18.2 °C 16.8 °C 1007.7 hPa ESE 3.7 km/h 7.4 km/h 92% 0 mm 0.00 W/m2
20:08 18.1 °C 16.6 °C 1007.7 hPa Calm   5.5 km/h 91% 0 mm 0.00 W/m2
20:13 18.1 °C 16.6 °C 1007.7 hPa Calm   7.4 km/h 91% 0 mm 0.00 W/m2
20:18 18 °C 16.7 °C 1008 hPa Calm   7.4 km/h 92% 0 mm 0.00 W/m2
20:23 17.9 °C 16.4 °C 1008 hPa ESE 3.7 km/h 3.7 km/h 91% 0 mm 0.00 W/m2
20:29 17.8 °C 16.5 °C 1008 hPa Calm   5.5 km/h 92% 0 mm 0.00 W/m2
20:34 17.8 °C 16.4 °C 1008 hPa Calm   3.7 km/h 92% 0 mm 0.00 W/m2
20:39 17.7 °C 16.4 °C 1008 hPa Calm   5.5 km/h 92% 0 mm 0.00 W/m2
20:44 17.7 °C 16.4 °C 1008 hPa ESE 3.7 km/h 7.4 km/h 92% 0 mm 0.00 W/m2
20:49 17.7 °C 16.6 °C 1008 hPa ESE 3.7 km/h 3.7 km/h 93% 0 mm 0.00 W/m2
20:54 17.7 °C 16.5 °C 1008 hPa ESE 3.7 km/h 7.4 km/h 93% 0 mm 0.00 W/m2
20:59 17.7 °C 16.5 °C 1008 hPa ESE 1.8 km/h 3.7 km/h 93% 0 mm 0.00 W/m2
21:04 17.6 °C 16.4 °C 1008 hPa ESE 3.7 km/h 3.7 km/h 93% 0 mm 0.00 W/m2
21:09 17.6 °C 16.4 °C 1008 hPa Calm     93% 0 mm 0.00 W/m2
21:14 17.5 °C 16.3 °C 1008.4 hPa Calm     93% 0 mm 0.00 W/m2
21:19 17.5 °C 16.3 °C 1008.4 hPa Calm     93% 0 mm 0.00 W/m2
21:25 17.5 °C 16.3 °C 1008.4 hPa Calm     93% 0 mm 0.00 W/m2
21:30 17.4 °C 16.3 °C 1008.4 hPa Calm     93% 0 mm 0.00 W/m2
21:35 17.4 °C 16.3 °C 1008.4 hPa Calm     93% 0 mm 0.00 W/m2
21:40 17.4 °C 16.2 °C 1008.4 hPa Calm     93% 0 mm 0.00 W/m2
21:45 17.4 °C 16.2 °C 1008.4 hPa Calm     93% 0 mm 0.00 W/m2
21:50 17.3 °C 16.2 °C 1008.4 hPa Calm     93% 0 mm 0.00 W/m2
21:53 17.3 °C 16.2 °C 1008.4 hPa Calm     93% 0 mm 0.00 W/m2
21:58 17.3 °C 16.2 °C 1008.4 hPa Calm     93% 0 mm 0.00 W/m2
22:03 17.3 °C 16.1 °C 1008.4 hPa Calm     93% 0 mm 0.00 W/m2
22:08 17.3 °C 16.1 °C 1008.4 hPa Calm     93% 0 mm 0.00 W/m2
22:15 17.2 °C 16.1 °C 1008.4 hPa Calm     93% 0 mm 0.00 W/m2
22:19 17.2 °C 16.1 °C 1008.4 hPa Calm     93% 0 mm 0.00 W/m2
22:20 17.2 °C 16.1 °C 1008.4 hPa Calm     93% 0 mm 0.00 W/m2
22:21 17.2 °C 16.1 °C 1008.4 hPa Calm     93% 0 mm 0.00 W/m2
22:25 17.2 °C 16.1 °C 1008.7 hPa Calm     93% 0 mm 0.00 W/m2
22:26 17.2 °C 16.1 °C 1008.4 hPa Calm     93% 0 mm 0.00 W/m2
22:27 17.2 °C 16.1 °C 1008.4 hPa Calm     93% 0 mm 0.00 W/m2
22:29 17.2 °C 16.1 °C 1008.4 hPa Calm     93% 0 mm 0.00 W/m2
22:32 17.2 °C 16.1 °C 1008.4 hPa Calm     93% 0 mm 0.00 W/m2
22:36 17.2 °C 16 °C 1008.4 hPa Calm     93% 0 mm 0.00 W/m2
22:41 17.2 °C 16.2 °C 1008.7 hPa Calm     94% 0 mm 0.00 W/m2
22:46 17.2 °C 16.2 °C 1008.7 hPa Calm     94% 0 mm 0.00 W/m2
22:52 17.2 °C 16.2 °C 1008.7 hPa Calm     94% 0 mm 0.00 W/m2
22:57 17.2 °C 16.2 °C 1008.7 hPa Calm     94% 0 mm 0.00 W/m2
23:02 17.1 °C 16.1 °C 1008.4 hPa Calm     94% 0 mm 0.00 W/m2
23:07 16.9 °C 16 °C 1008.4 hPa Calm     94% 0 mm 0.00 W/m2
23:12 16.8 °C 15.9 °C 1008.7 hPa Calm     94% 0 mm 0.00 W/m2
23:17 16.7 °C 15.8 °C 1008.7 hPa Calm     94% 0 mm 0.00 W/m2
23:22 16.4 °C 15.5 °C 1008.7 hPa Calm     94% 0 mm 0.00 W/m2
23:27 16.2 °C 15.3 °C 1008.7 hPa Calm     94% 0 mm 0.00 W/m2
23:33 16.1 °C 15.1 °C 1008.7 hPa Calm     94% 0 mm 0.00 W/m2
23:38 15.9 °C 14.9 °C 1008.7 hPa Calm     94% 0 mm 0.00 W/m2
23:43 15.7 °C 14.9 °C 1008.7 hPa Calm     95% 0 mm 0.00 W/m2
23:48 15.7 °C 14.9 °C 1008.7 hPa Calm     95% 0 mm 0.00 W/m2
23:53 15.6 °C 14.8 °C 1008.7 hPa Calm     95% 0 mm 0.00 W/m2
23:58 15.6 °C 14.8 °C 1008.7 hPa Calm     95% 0 mm 0.00 W/m2
peotoneweather.com
Compliments of Weather Underground - 3.75 mb